Orkney, Kentucky
Current Conditions -  °F | °C
As of 2:55 AM on Sunday 26 Oct 2014 (Local Time) from KPBX Reporting Station
Clear Clear  
Wind Chill: 59°   Ceiling: Unl
Heat Index: 59°   Visibility: 10mi
Dew Point: 55°   Wind: 7mph
Humidity: 86%   Direction: 260°W
Pressure: 29.95"   Gusts: NA
Location:  37.4275°N, 82.7438°W
Report Text: KPBX 260655Z AUTO 26006KT 10SM CLR 15/13 A2995 RMK AO2 T01500127
Loading
Personal Weather Stations






























Interactive Weather Map
Tropical Storm Tracking
New forecast layout! Learn more

10-Day Weather Forecast

Advertisements
Track Severe Weather on mobile